This is the latest recevied weather packets stored in our database for station/object KB1ZFK. If no packets are shown the sender has not sent any weather packets the latest 1 day(s).
| Time | Temp. | Humidity | Pressure | Rain* | Wind** | Luminosity | Snow |
|---|---|---|---|---|---|---|---|
| 1778077627 | 20° C | 72% | 1008 hPa | 0 mm | - | 272 W/m² | - |
| 1778076720 | 18.89° C | 75% | 1008.1 hPa | 0 mm | - | 436 W/m² | - |
| 1778075508 | 17.78° C | 79% | 1008.1 hPa | 0 mm | - | 166 W/m² | - |
| 1778075204 | 17.78° C | 79% | 1008 hPa | 0 mm | - | 154 W/m² | - |
| 1778074900 | 18.33° C | 78% | 1008.1 hPa | 0 mm | - | 134 W/m² | - |
| 1778073992 | 17.78° C | 79% | 1008.2 hPa | 0 mm | - | 113 W/m² | - |
| 1778073386 | 17.22° C | 80% | 1008.4 hPa | 0 mm | - | 108 W/m² | - |
| 1778073082 | 17.22° C | 81% | 1008.5 hPa | 0 mm | - | 98 W/m² | - |
| 1778072175 | 16.67° C | 81% | 1008.4 hPa | 0 mm | - | 63 W/m² | - |
| 1778071872 | 16.67° C | 82% | 1008.4 hPa | 0 mm | - | 79 W/m² | - |
| 1778069755 | 15.56° C | 84% | 1008.5 hPa | 0 mm | - | 67 W/m² | - |
| 1778069451 | 15.56° C | 84% | 1008.4 hPa | 0 mm | - | 69 W/m² | - |
| 1778068846 | 15.56° C | 83% | 1008.8 hPa | 0 mm | - | 52 W/m² | - |
| 1778068544 | 15.56° C | 84% | 1008.7 hPa | 0 mm | - | 94 W/m² | - |
| 1778066426 | 15° C | 85% | 1008.9 hPa | 0 mm | - | 54 W/m² | - |
| 1778065821 | 15° C | 85% | 1009 hPa | 0 mm | - | 59 W/m² | - |
| 1778065519 | 14.44° C | 86% | 1008.7 hPa | 0 mm | - | 66 W/m² | - |
| 1778065216 | 14.44° C | 86% | 1008.9 hPa | 0 mm | - | 59 W/m² | - |
| 1778064609 | 13.89° C | 86% | 1008.7 hPa | 0 mm | - | 47 W/m² | - |
| 1778064005 | 13.89° C | 87% | 1009 hPa | 0 mm | - | 36 W/m² | - |
| 1778062794 | 13.89° C | 86% | 1008.7 hPa | 0 mm | - | 13 W/m² | - |
| 1778062490 | 13.89° C | 86% | 1008.8 hPa | 0 mm | - | 15 W/m² | - |
| 1778061886 | 13.89° C | 86% | 1008.9 hPa | 0 mm | - | 10 W/m² | - |
| 1778060977 | 13.33° C | 86% | 1008.9 hPa | 0 mm | - | 4 W/m² | - |
| 1778060676 | 13.33° C | 86% | 1008.8 hPa | 0 mm | - | 2 W/m² | - |
* Rain latest hour (hover to see other rain measurements)
** Current wind speed in m/s (hover to see current wind gust speed)